Time;durP1;ratioP1;P1;durP2;ratioP2;P2;SDS_P1;SDS_P2;PMS_P1;PMS_P2;Temp;Humidity;BMP_temperature;BMP_pressure;BME280_temperature;BME280_humidity;BME280_pressure;Samples;Min_cycle;Max_cycle;Signal;HPM_P1;HPM_P2
2021/07/17 00:01:18;;;;;;;24.03;21.60;;;18.80;99.90;;;;;;5015083;28;20462;-68
2021/07/17 00:03:45;;;;;;;28.43;21.83;;;18.90;99.90;;;;;;5014858;28;20446;-69
2021/07/17 00:06:11;;;;;;;38.30;21.47;;;19.00;99.90;;;;;;5014649;28;20962;-69
2021/07/17 00:08:38;;;;;;;38.93;23.07;;;18.90;99.90;;;;;;5014802;28;20446;-69
2021/07/17 00:11:05;;;;;;;29.53;21.93;;;18.90;99.90;;;;;;5014435;28;21105;-70
2021/07/17 00:13:32;;;;;;;25.27;20.17;;;18.90;99.90;;;;;;5014667;28;20447;-69
2021/07/17 00:16:00;;;;;;;22.93;20.57;;;18.80;99.90;;;;;;5015323;28;20454;-68
2021/07/17 00:18:26;;;;;;;29.30;22.70;;;19.00;99.90;;;;;;5014509;28;20486;-69
2021/07/17 00:20:53;;;;;;;29.83;22.63;;;19.00;99.90;;;;;;5014663;28;20501;-70
2021/07/17 00:23:20;;;;;;;24.80;21.30;;;19.10;99.90;;;;;;5014781;28;20940;-69
2021/07/17 00:25:49;;;;;;;35.80;23.97;;;19.10;99.90;;;;;;5015090;28;20453;-68
2021/07/17 00:28:16;;;;;;;25.00;21.73;;;19.10;99.90;;;;;;5015317;28;20823;-69
2021/07/17 00:30:43;;;;;;;36.40;20.70;;;19.00;99.90;;;;;;5014736;28;20696;-69
2021/07/17 00:33:11;;;;;;;24.30;20.27;;;19.00;99.90;;;;;;5014143;28;20446;-68
2021/07/17 00:35:38;;;;;;;27.03;21.30;;;19.00;99.90;;;;;;5014272;28;20449;-68
2021/07/17 00:38:05;;;;;;;22.67;20.73;;;19.00;99.90;;;;;;5014027;28;20493;-68
2021/07/17 00:40:34;;;;;;;26.13;23.37;;;19.00;99.90;;;;;;5014080;28;20466;-68
2021/07/17 00:43:00;;;;;;;21.17;18.93;;;19.00;99.90;;;;;;5013093;28;20460;-68
2021/07/17 00:45:27;;;;;;;28.00;21.80;;;18.90;99.90;;;;;;5013395;28;20974;-68
2021/07/17 00:47:54;;;;;;;24.73;21.57;;;18.90;99.90;;;;;;5013640;28;20905;-69
2021/07/17 00:50:23;;;;;;;24.67;22.10;;;18.90;99.90;;;;;;5013256;28;20466;-68
2021/07/17 00:52:50;;;;;;;31.17;22.00;;;18.90;99.90;;;;;;5008134;28;20454;-68
2021/07/17 00:55:17;;;;;;;26.17;21.13;;;18.90;99.90;;;;;;5013190;28;20457;-69
2021/07/17 00:57:47;;;;;;;27.50;21.50;;;18.90;99.90;;;;;;5012912;28;20461;-68
2021/07/17 01:00:16;;;;;;;23.73;21.17;;;18.90;99.90;;;;;;5013178;28;20477;-69
2021/07/17 01:02:46;;;;;;;27.73;21.80;;;18.90;99.90;;;;;;5013013;28;20448;-69
2021/07/17 01:05:13;;;;;;;23.37;20.80;;;18.80;99.90;;;;;;5013226;28;20477;-69
2021/07/17 01:07:42;;;;;;;23.57;21.33;;;18.80;99.90;;;;;;5013186;28;20453;-68
2021/07/17 01:10:13;;;;;;;29.30;23.47;;;18.80;99.90;;;;;;5012430;28;21024;-69
2021/07/17 01:12:40;;;;;;;29.73;22.73;;;18.80;99.90;;;;;;5012777;28;20449;-68
2021/07/17 01:15:08;;;;;;;24.50;21.97;;;18.80;99.90;;;;;;5012358;28;20442;-68
2021/07/17 01:17:35;;;;;;;24.27;21.57;;;18.80;99.90;;;;;;5012750;28;20449;-69
2021/07/17 01:20:02;;;;;;;28.63;23.27;;;18.80;99.90;;;;;;5012429;28;20810;-67
2021/07/17 01:22:31;;;;;;;25.73;20.60;;;18.80;99.90;;;;;;5012592;28;20458;-68
2021/07/17 01:24:59;;;;;;;24.73;21.57;;;18.80;99.90;;;;;;5012966;28;20549;-67
2021/07/17 01:27:26;;;;;;;24.90;22.40;;;18.80;99.90;;;;;;5012009;28;20454;-68
2021/07/17 01:29:53;;;;;;;27.80;22.70;;;18.80;99.90;;;;;;5012492;28;20564;-68
2021/07/17 01:32:23;;;;;;;28.47;22.13;;;18.80;99.90;;;;;;5012223;28;20455;-68
2021/07/17 01:34:51;;;;;;;23.70;21.00;;;18.80;99.90;;;;;;5012443;28;20803;-68
2021/07/17 01:37:18;;;;;;;26.73;22.27;;;18.80;99.90;;;;;;5012551;28;20450;-68
2021/07/17 01:39:46;;;;;;;22.90;20.50;;;18.90;99.90;;;;;;5012128;28;20485;-69
2021/07/17 01:42:13;;;;;;;26.43;21.00;;;19.00;99.90;;;;;;5012084;28;20446;-68
2021/07/17 01:44:43;;;;;;;25.83;23.30;;;18.90;99.90;;;;;;5012534;28;20473;-68
2021/07/17 01:47:12;;;;;;;28.77;21.37;;;18.90;99.90;;;;;;5012232;28;20815;-68
2021/07/17 01:49:39;;;;;;;24.20;21.70;;;19.00;99.90;;;;;;5012351;28;20813;-68
2021/07/17 01:52:07;;;;;;;25.30;22.10;;;18.90;99.90;;;;;;5011866;28;20446;-68
2021/07/17 01:54:34;;;;;;;27.10;23.60;;;18.90;99.90;;;;;;5012407;28;20454;-67
2021/07/17 01:57:04;;;;;;;26.80;22.17;;;18.90;99.90;;;;;;5012130;28;20457;-67
2021/07/17 01:59:31;;;;;;;27.07;22.30;;;18.80;99.90;;;;;;5009648;28;20528;-68
2021/07/17 02:01:57;;;;;;;25.87;23.33;;;18.80;99.90;;;;;;5012052;28;20449;-68
2021/07/17 02:04:24;;;;;;;27.50;22.77;;;18.80;99.90;;;;;;5011805;28;20832;-68
2021/07/17 02:06:50;;;;;;;23.37;20.97;;;18.80;99.90;;;;;;5011986;28;20450;-69
2021/07/17 02:09:17;;;;;;;26.07;23.17;;;18.80;99.90;;;;;;5011807;28;20811;-68
2021/07/17 02:11:44;;;;;;;25.17;22.50;;;18.80;99.90;;;;;;5011695;28;20462;-69
2021/07/17 02:14:12;;;;;;;27.37;22.47;;;18.80;99.90;;;;;;5011810;28;20500;-68
2021/07/17 02:16:40;;;;;;;26.43;22.70;;;18.80;99.90;;;;;;5011991;28;20492;-67
2021/07/17 02:19:17;;;;;;;30.63;22.97;;;18.90;99.90;;;;;;5011531;28;20513;-68
2021/07/17 02:21:43;;;;;;;23.30;20.90;;;18.80;99.90;;;;;;5011824;28;20787;-68
2021/07/17 02:24:10;;;;;;;24.67;22.47;;;18.70;99.90;;;;;;5011597;28;20453;-69
2021/07/17 02:26:37;;;;;;;34.00;25.20;;;18.70;99.90;;;;;;5011960;28;20454;-68
2021/07/17 02:29:04;;;;;;;25.80;22.77;;;18.60;99.90;;;;;;5011152;28;20442;-67
2021/07/17 02:31:32;;;;;;;27.20;20.97;;;18.50;99.90;;;;;;5003875;28;20454;-68
2021/07/17 02:33:58;;;;;;;24.03;21.50;;;18.50;99.90;;;;;;5011288;28;20439;-68
2021/07/17 02:36:25;;;;;;;25.40;22.20;;;18.50;99.90;;;;;;5011430;28;20446;-68
2021/07/17 02:38:52;;;;;;;25.87;21.00;;;18.50;99.90;;;;;;5011472;28;20481;-68
2021/07/17 02:41:20;;;;;;;27.33;23.50;;;18.40;99.90;;;;;;5010929;28;20991;-68
2021/07/17 02:43:47;;;;;;;25.83;22.67;;;18.40;99.90;;;;;;5011331;28;20507;-68
2021/07/17 02:46:13;;;;;;;29.10;23.57;;;18.40;99.90;;;;;;5011267;28;20454;-68
2021/07/17 02:48:42;;;;;;;22.87;20.10;;;18.40;99.90;;;;;;5011613;28;20442;-68
2021/07/17 02:51:08;;;;;;;25.27;22.90;;;18.40;99.90;;;;;;5010999;28;20478;-68
2021/07/17 02:53:35;;;;;;;30.20;22.83;;;18.50;99.90;;;;;;5011369;28;20455;-68
2021/07/17 02:56:02;;;;;;;30.20;23.90;;;18.50;99.90;;;;;;5011309;28;20453;-67
2021/07/17 02:58:29;;;;;;;25.93;23.00;;;18.50;99.90;;;;;;5010965;28;20449;-67
2021/07/17 03:00:55;;;;;;;25.07;21.37;;;18.50;99.90;;;;;;5011398;28;20462;-68
2021/07/17 03:03:23;;;;;;;25.60;22.87;;;18.50;99.90;;;;;;5010969;28;20449;-69
2021/07/17 03:05:51;;;;;;;25.23;22.77;;;18.50;99.90;;;;;;5011495;28;20443;-69
2021/07/17 03:08:21;;;;;;;30.73;22.43;;;18.50;99.90;;;;;;5010847;28;20446;-68
2021/07/17 03:10:48;;;;;;;26.50;21.47;;;18.50;99.90;;;;;;5011196;28;20470;-68
2021/07/17 03:13:15;;;;;;;46.70;24.10;;;18.40;99.90;;;;;;5010708;28;20446;-68
2021/07/17 03:15:42;;;;;;;27.63;22.83;;;18.40;99.90;;;;;;5011307;28;20442;-68
2021/07/17 03:18:09;;;;;;;24.23;21.50;;;18.30;99.90;;;;;;5010822;28;20515;-68
2021/07/17 03:20:36;;;;;;;32.30;22.90;;;18.30;99.90;;;;;;5011150;28;20497;-68
2021/07/17 03:23:04;;;;;;;27.93;22.57;;;18.40;99.90;;;;;;5010705;28;20482;-68
2021/07/17 03:25:31;;;;;;;28.40;21.87;;;18.40;99.90;;;;;;5003839;28;20445;-67
2021/07/17 03:27:58;;;;;;;30.43;23.70;;;18.40;99.90;;;;;;5010946;28;20461;-68
2021/07/17 03:30:25;;;;;;;26.40;23.20;;;18.40;99.90;;;;;;5010633;28;20484;-68
2021/07/17 03:32:51;;;;;;;26.23;23.53;;;18.40;99.90;;;;;;5011058;28;20453;-68
2021/07/17 03:35:18;;;;;;;27.23;24.43;;;18.30;99.90;;;;;;5010732;28;20453;-68
2021/07/17 03:37:45;;;;;;;26.90;24.00;;;18.30;99.90;;;;;;5010959;28;20450;-68
2021/07/17 03:40:14;;;;;;;24.83;22.23;;;18.30;99.90;;;;;;5010473;28;21000;-69
2021/07/17 03:42:41;;;;;;;33.00;24.67;;;18.30;99.90;;;;;;5010721;28;20468;-68
2021/07/17 03:45:08;;;;;;;33.57;25.03;;;18.20;99.90;;;;;;5010878;28;20458;-68
2021/07/17 03:47:35;;;;;;;29.73;24.33;;;18.20;99.90;;;;;;5010619;28;20449;-68
2021/07/17 03:50:02;;;;;;;24.93;22.43;;;18.20;99.90;;;;;;5010748;28;20492;-67
2021/07/17 03:52:29;;;;;;;24.87;22.27;;;18.10;99.90;;;;;;5010613;28;20450;-68
2021/07/17 03:54:56;;;;;;;26.03;22.73;;;18.10;99.90;;;;;;5012802;28;20528;-68
2021/07/17 03:57:24;;;;;;;23.83;21.40;;;18.10;99.90;;;;;;5013840;28;20458;-69
2021/07/17 03:59:50;;;;;;;26.00;23.20;;;18.20;99.90;;;;;;5013265;28;20484;-69
2021/07/17 04:02:17;;;;;;;27.70;22.03;;;18.20;99.90;;;;;;5012838;28;20446;-68
2021/07/17 04:04:45;;;;;;;23.33;20.90;;;18.20;99.90;;;;;;5013612;28;20939;-68
2021/07/17 04:07:12;;;;;;;28.17;24.70;;;18.20;99.90;;;;;;5014040;28;20541;-68
2021/07/17 04:09:38;;;;;;;27.63;23.70;;;18.20;99.90;;;;;;5014150;28;20480;-68
2021/07/17 04:12:05;;;;;;;24.90;22.40;;;18.20;99.90;;;;;;5013645;28;20442;-66
2021/07/17 04:14:34;;;;;;;26.00;22.30;;;18.20;99.90;;;;;;5013682;28;20442;-68
2021/07/17 04:17:00;;;;;;;24.77;22.10;;;18.20;99.90;;;;;;5013892;28;20861;-67
2021/07/17 04:19:27;;;;;;;24.70;21.20;;;18.30;99.90;;;;;;5013162;28;20478;-68
2021/07/17 04:21:54;;;;;;;30.20;24.23;;;18.20;99.90;;;;;;5013695;28;20820;-68
2021/07/17 04:24:21;;;;;;;23.77;21.23;;;18.20;99.90;;;;;;5014051;28;20442;-68
2021/07/17 04:26:48;;;;;;;28.17;22.83;;;18.20;99.90;;;;;;5013412;28;20978;-68
2021/07/17 04:29:14;;;;;;;31.37;21.63;;;18.20;99.90;;;;;;5011383;28;20473;-67
2021/07/17 04:31:42;;;;;;;23.23;20.87;;;18.20;99.90;;;;;;5013146;28;20449;-67
2021/07/17 04:34:09;;;;;;;24.33;22.00;;;18.30;99.90;;;;;;5013536;28;20454;-69
2021/07/17 04:36:37;;;;;;;26.27;23.70;;;18.30;99.90;;;;;;5013155;28;20446;-68
2021/07/17 04:39:04;;;;;;;33.77;23.10;;;18.30;99.90;;;;;;5013487;28;20454;-68
2021/07/17 04:41:31;;;;;;;34.57;22.20;;;18.30;99.90;;;;;;5005925;28;21153;-68
2021/07/17 04:43:58;;;;;;;25.50;22.50;;;18.40;99.90;;;;;;5013846;28;20461;-68
2021/07/17 04:46:25;;;;;;;35.97;22.37;;;18.40;99.90;;;;;;5013351;28;20452;-69
2021/07/17 04:48:53;;;;;;;22.53;20.30;;;18.40;99.90;;;;;;5013659;28;20461;-69
2021/07/17 04:51:20;;;;;;;28.70;22.60;;;18.40;99.90;;;;;;5013273;28;20505;-69
2021/07/17 04:53:47;;;;;;;29.10;23.70;;;18.40;99.90;;;;;;5012886;28;20445;-69
2021/07/17 04:56:14;;;;;;;25.30;21.77;;;18.40;99.90;;;;;;5013314;28;20445;-65
2021/07/17 04:58:40;;;;;;;25.00;22.70;;;18.30;99.90;;;;;;5013040;28;20450;-63
2021/07/17 05:01:07;;;;;;;25.80;23.53;;;18.30;99.90;;;;;;5012816;28;20503;-63
2021/07/17 05:03:36;;;;;;;26.07;23.47;;;18.30;99.90;;;;;;5012966;28;20960;-66
2021/07/17 05:06:04;;;;;;;25.10;22.60;;;18.30;99.90;;;;;;5009450;28;20512;-64
2021/07/17 05:08:31;;;;;;;24.63;22.37;;;18.30;99.90;;;;;;5012045;28;20453;-61
2021/07/17 05:10:58;;;;;;;28.33;23.57;;;18.30;99.90;;;;;;5013029;28;20865;-62
2021/07/17 05:13:25;;;;;;;24.60;22.07;;;18.30;99.90;;;;;;5012377;28;21837;-61
2021/07/17 05:15:52;;;;;;;24.93;22.33;;;18.40;99.90;;;;;;5012868;28;20442;-60
2021/07/17 05:18:21;;;;;;;38.93;23.13;;;18.40;99.90;;;;;;5012830;28;20461;-60
2021/07/17 05:20:48;;;;;;;24.00;21.73;;;18.50;99.90;;;;;;5012690;28;20489;-62
2021/07/17 05:23:17;;;;;;;36.87;22.47;;;18.50;99.90;;;;;;5012400;28;20446;-60
2021/07/17 05:25:44;;;;;;;25.30;22.93;;;18.50;99.90;;;;;;5012831;28;20497;-60
2021/07/17 05:28:11;;;;;;;24.40;22.03;;;18.50;99.90;;;;;;5011962;28;20454;-61
2021/07/17 05:30:38;;;;;;;27.83;21.80;;;18.50;99.90;;;;;;5012137;28;20833;-60
2021/07/17 05:33:05;;;;;;;25.27;22.70;;;18.50;99.90;;;;;;5012294;28;20454;-59
2021/07/17 05:35:32;;;;;;;23.37;21.10;;;18.50;99.90;;;;;;5005164;28;20454;-64
2021/07/17 05:38:00;;;;;;;23.40;19.60;;;18.50;99.90;;;;;;5012539;28;20457;-62
2021/07/17 05:40:29;;;;;;;26.27;23.03;;;18.50;99.90;;;;;;5011975;28;20478;-58
2021/07/17 05:42:57;;;;;;;31.67;22.90;;;18.50;99.90;;;;;;5011751;28;20464;-63
2021/07/17 05:45:25;;;;;;;24.97;22.27;;;18.50;99.90;;;;;;5012293;28;20468;-62
2021/07/17 05:47:52;;;;;;;32.43;24.47;;;18.40;99.90;;;;;;5012507;28;20446;-59
2021/07/17 05:50:20;;;;;;;35.13;24.90;;;18.40;99.90;;;;;;5012170;28;20484;-61
2021/07/17 05:52:48;;;;;;;28.63;22.07;;;18.40;99.90;;;;;;5012142;28;20529;-59
2021/07/17 05:55:16;;;;;;;22.60;20.50;;;18.50;99.90;;;;;;5012033;28;20442;-59
2021/07/17 05:57:45;;;;;;;24.37;21.87;;;18.50;99.90;;;;;;5012142;28;20532;-62
2021/07/17 06:00:13;;;;;;;29.60;22.27;;;18.50;99.90;;;;;;5012010;28;20987;-60
2021/07/17 06:02:41;;;;;;;26.90;24.10;;;18.50;99.90;;;;;;5011977;28;20465;-58
2021/07/17 06:05:09;;;;;;;26.30;22.20;;;18.50;99.90;;;;;;5011865;28;20485;-63
2021/07/17 06:07:36;;;;;;;24.53;22.17;;;18.60;99.90;;;;;;5012148;28;20439;-60
2021/07/17 06:10:04;;;;;;;24.47;22.23;;;18.70;99.90;;;;;;5011848;28;20470;-60
2021/07/17 06:12:33;;;;;;;32.13;24.47;;;18.80;99.90;;;;;;5004504;28;20469;-62
2021/07/17 06:15:01;;;;;;;27.50;24.93;;;18.80;99.90;;;;;;5011697;28;20450;-62
2021/07/17 06:17:27;;;;;;;27.07;23.83;;;18.80;99.90;;;;;;5010646;28;20474;-61
2021/07/17 06:19:54;;;;;;;23.67;21.87;;;18.80;99.90;;;;;;5011650;28;20821;-59
2021/07/17 06:22:21;;;;;;;27.47;24.83;;;18.90;99.90;;;;;;5011479;28;20450;-59
2021/07/17 06:24:48;;;;;;;27.00;24.10;;;18.90;99.90;;;;;;5011618;28;20450;-59
2021/07/17 06:27:14;;;;;;;30.67;27.97;;;19.10;99.90;;;;;;5011475;28;20970;-62
2021/07/17 06:29:41;;;;;;;26.77;24.43;;;19.20;99.90;;;;;;5011399;28;20544;-59
2021/07/17 06:32:10;;;;;;;26.47;24.17;;;19.20;99.90;;;;;;5028121;23;20504;-64
2021/07/17 06:34:37;;;;;;;28.17;25.57;;;19.20;99.90;;;;;;5014363;28;20446;-64
2021/07/17 06:37:05;;;;;;;29.20;26.53;;;19.20;99.90;;;;;;5011659;28;20501;-64
2021/07/17 06:39:33;;;;;;;26.67;23.83;;;19.10;99.90;;;;;;5004182;28;20453;-64
2021/07/17 06:42:02;;;;;;;37.97;26.13;;;19.00;99.90;;;;;;5011369;28;20466;-65
2021/07/17 06:44:30;;;;;;;29.57;26.57;;;19.00;99.90;;;;;;5011280;28;20453;-64
2021/07/17 06:46:57;;;;;;;30.90;27.73;;;19.10;99.90;;;;;;5011664;28;20446;-65
2021/07/17 06:49:25;;;;;;;32.20;27.20;;;19.10;99.90;;;;;;5011004;28;20450;-64
2021/07/17 06:51:52;;;;;;;28.07;25.67;;;19.20;99.90;;;;;;5011103;28;20875;-64
2021/07/17 06:54:19;;;;;;;29.73;26.83;;;19.20;99.90;;;;;;5011142;28;20446;-63
2021/07/17 06:56:46;;;;;;;30.80;27.50;;;19.30;99.90;;;;;;5011687;28;20450;-64
2021/07/17 06:59:13;;;;;;;29.00;26.43;;;19.40;99.90;;;;;;5011197;28;20522;-64
2021/07/17 07:01:41;;;;;;;31.47;28.27;;;19.40;99.90;;;;;;5010354;28;20486;-63
2021/07/17 07:04:08;;;;;;;33.23;29.93;;;19.40;99.90;;;;;;5011201;28;20454;-64
2021/07/17 07:06:36;;;;;;;33.60;30.50;;;19.60;99.90;;;;;;5011308;28;20446;-64
2021/07/17 07:09:03;;;;;;;30.33;27.60;;;19.80;99.90;;;;;;5011418;28;20454;-64
2021/07/17 07:11:30;;;;;;;30.73;28.03;;;20.10;99.90;;;;;;5011003;28;20465;-64
2021/07/17 07:13:56;;;;;;;29.50;26.47;;;20.40;99.90;;;;;;5011625;28;20473;-64
2021/07/17 07:16:23;;;;;;;32.77;29.67;;;20.40;99.90;;;;;;5011233;28;20446;-64
2021/07/17 07:18:50;;;;;;;38.10;34.33;;;20.40;99.90;;;;;;5011162;28;20445;-64
2021/07/17 07:21:17;;;;;;;35.87;32.57;;;20.50;99.90;;;;;;5010759;28;20995;-64
2021/07/17 07:23:45;;;;;;;35.70;32.47;;;20.60;99.90;;;;;;5011133;28;20465;-64
2021/07/17 07:26:14;;;;;;;32.03;29.57;;;20.70;99.90;;;;;;5010677;28;20445;-63
2021/07/17 07:28:41;;;;;;;28.27;25.97;;;20.70;99.90;;;;;;5012716;28;20481;-65
2021/07/17 07:31:07;;;;;;;30.30;27.67;;;20.60;99.90;;;;;;5014209;28;20470;-63
2021/07/17 07:33:35;;;;;;;34.33;31.17;;;20.50;99.90;;;;;;5014695;28;20446;-63
2021/07/17 07:36:02;;;;;;;37.90;34.27;;;20.00;99.90;;;;;;5015055;28;20445;-63
2021/07/17 07:38:28;;;;;;;35.00;31.80;;;19.70;99.90;;;;;;5014281;28;20445;-63
2021/07/17 07:40:57;;;;;;;36.77;33.20;;;19.70;99.90;;;;;;5013251;28;20485;-64
2021/07/17 07:43:24;;;;;;;35.97;32.67;;;19.80;99.90;;;;;;5013926;28;20477;-65
2021/07/17 07:45:51;;;;;;;33.80;30.87;;;19.80;99.90;;;;;;5014563;28;20807;-64
2021/07/17 07:48:17;;;;;;;36.23;33.27;;;19.90;99.90;;;;;;5014530;28;20523;-66
2021/07/17 07:50:44;;;;;;;33.33;30.40;;;20.10;99.90;;;;;;5014497;28;20808;-66
2021/07/17 07:53:11;;;;;;;34.87;31.80;;;20.00;99.90;;;;;;5013972;28;20448;-65
2021/07/17 07:55:38;;;;;;;38.00;34.17;;;19.70;99.90;;;;;;5014138;28;21081;-64
2021/07/17 07:58:06;;;;;;;34.83;31.40;;;19.80;99.90;;;;;;5014038;28;20786;-65
2021/07/17 08:00:33;;;;;;;29.53;26.47;;;20.10;99.90;;;;;;5014084;28;20878;-65
2021/07/17 08:03:00;;;;;;;29.37;25.93;;;20.20;99.90;;;;;;5014172;28;20457;-64
2021/07/17 08:05:27;;;;;;;30.87;27.67;;;20.50;99.90;;;;;;5014223;28;20449;-64
2021/07/17 08:07:54;;;;;;;28.63;26.33;;;20.70;99.90;;;;;;5014476;28;20450;-65
2021/07/17 08:10:21;;;;;;;31.67;28.57;;;20.80;99.90;;;;;;5013988;28;20465;-65
2021/07/17 08:12:48;;;;;;;31.73;28.80;;;21.10;99.90;;;;;;5014031;28;20481;-64
2021/07/17 08:15:17;;;;;;;28.47;26.27;;;21.10;99.90;;;;;;5013771;28;20447;-64
2021/07/17 08:17:44;;;;;;;31.30;28.20;;;21.40;99.90;;;;;;5014066;28;20457;-65
2021/07/17 08:20:11;;;;;;;31.50;28.77;;;21.60;99.90;;;;;;5013533;28;20446;-65
2021/07/17 08:22:39;;;;;;;34.53;31.60;;;21.90;99.90;;;;;;5013394;28;20445;-64
2021/07/17 08:25:08;;;;;;;31.33;28.73;;;21.50;99.90;;;;;;5010626;28;20447;-65
2021/07/17 08:27:35;;;;;;;33.50;30.50;;;21.70;99.90;;;;;;5013725;28;20450;-65
2021/07/17 08:30:02;;;;;;;30.83;28.03;;;21.80;99.90;;;;;;5013850;28;20445;-65
2021/07/17 08:32:33;;;;;;;27.60;25.23;;;22.20;99.90;;;;;;5012908;28;20457;-64
2021/07/17 08:35:00;;;;;;;26.57;24.80;;;22.40;99.90;;;;;;5013833;28;20446;-65
2021/07/17 08:37:26;;;;;;;26.40;24.10;;;22.30;99.90;;;;;;5013919;28;20449;-64
2021/07/17 08:39:53;;;;;;;28.23;25.70;;;22.40;99.90;;;;;;5013080;28;20453;-64
2021/07/17 08:42:25;;;;;;;26.27;23.80;;;22.40;99.90;;;;;;5013200;28;20483;-64
2021/07/17 08:44:54;;;;;;;26.83;24.67;;;22.40;99.90;;;;;;5013746;28;20450;-65
2021/07/17 08:47:21;;;;;;;29.00;26.20;;;22.50;99.90;;;;;;5013264;28;20461;-65
2021/07/17 08:49:50;;;;;;;27.93;25.87;;;22.40;99.90;;;;;;5013403;28;20454;-64
2021/07/17 08:52:17;;;;;;;26.80;24.60;;;22.70;99.90;;;;;;5012919;28;20474;-65
2021/07/17 08:54:44;;;;;;;26.47;24.57;;;23.00;99.90;;;;;;5012837;28;20446;-65
2021/07/17 08:57:12;;;;;;;26.40;24.20;;;23.10;99.90;;;;;;5013066;28;20516;-65
2021/07/17 08:59:39;;;;;;;25.53;23.53;;;22.90;99.90;;;;;;5013190;28;20554;-65
2021/07/17 09:02:06;;;;;;;25.50;23.30;;;22.80;99.90;;;;;;5012337;28;20486;-65
2021/07/17 09:04:34;;;;;;;25.67;23.93;;;23.40;99.90;;;;;;5013213;28;20871;-65
2021/07/17 09:07:03;;;;;;;24.13;22.23;;;23.70;99.90;;;;;;5013149;28;20711;-66
2021/07/17 09:09:31;;;;;;;26.73;24.27;;;24.10;99.90;;;;;;5012981;28;20445;-65
2021/07/17 09:11:58;;;;;;;25.37;23.27;;;23.80;99.90;;;;;;5012876;28;20493;-65
2021/07/17 09:14:38;;;;;;;25.17;23.30;;;23.90;99.90;;;;;;5012935;28;20540;-64
2021/07/17 09:17:06;;;;;;;25.17;22.90;;;24.00;99.90;;;;;;5012940;28;20555;-65
2021/07/17 09:19:33;;;;;;;25.70;23.90;;;24.20;99.90;;;;;;5012989;28;21014;-65
2021/07/17 09:22:01;;;;;;;26.83;24.77;;;24.00;99.90;;;;;;5012731;28;20485;-65
2021/07/17 09:24:28;;;;;;;26.73;24.83;;;23.70;99.90;;;;;;5012490;28;20450;-65
2021/07/17 09:26:58;;;;;;;29.93;26.93;;;23.60;99.90;;;;;;5012993;28;20453;-66
2021/07/17 09:29:34;;;;;;;29.10;26.90;;;24.00;99.90;;;;;;5012140;28;21258;-66
2021/07/17 09:32:01;;;;;;;28.33;26.27;;;24.30;99.90;;;;;;5012370;28;20481;-66
2021/07/17 09:34:31;;;;;;;30.47;27.90;;;24.50;99.90;;;;;;5012241;28;20967;-65
2021/07/17 09:36:59;;;;;;;32.20;28.90;;;24.60;99.90;;;;;;5012665;28;20450;-67
2021/07/17 09:39:31;;;;;;;30.73;28.10;;;24.60;99.90;;;;;;5012416;28;20443;-67
2021/07/17 09:42:00;;;;;;;30.17;27.80;;;25.00;99.90;;;;;;5012364;28;20478;-66
2021/07/17 09:44:28;;;;;;;30.33;28.43;;;25.00;99.90;;;;;;5012178;28;20442;-66
2021/07/17 09:46:55;;;;;;;29.17;26.60;;;24.50;99.90;;;;;;5011544;28;20453;-65
2021/07/17 09:49:23;;;;;;;29.73;27.07;;;24.30;99.90;;;;;;5012205;28;20458;-66
2021/07/17 09:52:06;;;;;;;27.37;25.27;;;24.60;99.90;;;;;;5010742;28;20984;-66
2021/07/17 09:54:34;;;;;;;27.17;25.20;;;24.40;99.90;;;;;;5005620;28;20452;-66
2021/07/17 09:57:02;;;;;;;24.67;23.13;;;24.50;99.90;;;;;;5012061;28;20455;-66
2021/07/17 09:59:29;;;;;;;27.07;25.17;;;24.60;99.90;;;;;;5011792;28;20826;-66
2021/07/17 10:01:55;;;;;;;25.40;23.63;;;24.00;99.90;;;;;;5011924;28;20847;-65
2021/07/17 10:04:22;;;;;;;27.30;25.33;;;24.10;99.90;;;;;;5011991;28;20450;-70
2021/07/17 10:06:57;;;;;;;25.30;23.70;;;24.50;99.90;;;;;;5011593;28;20520;-67
2021/07/17 10:09:33;;;;;;;24.43;22.90;;;24.60;99.90;;;;;;5011636;28;20450;-66
2021/07/17 10:12:04;;;;;;;25.20;23.60;;;24.40;99.90;;;;;;5011664;28;20476;-67
2021/07/17 10:14:34;;;;;;;25.80;23.93;;;24.60;99.90;;;;;;5008476;28;20458;-67
2021/07/17 10:17:05;;;;;;;24.90;23.30;;;24.60;99.90;;;;;;5011849;28;20965;-66
2021/07/17 10:19:32;;;;;;;23.20;21.90;;;24.60;99.90;;;;;;5004104;28;20807;-67
2021/07/17 10:21:59;;;;;;;24.43;22.57;;;24.80;99.90;;;;;;5011466;28;20485;-67
2021/07/17 10:24:27;;;;;;;24.37;22.83;;;24.60;99.90;;;;;;5011731;28;20446;-66
2021/07/17 10:26:54;;;;;;;23.67;22.20;;;24.50;99.90;;;;;;5011507;28;20816;-66
2021/07/17 10:29:24;;;;;;;23.90;21.90;;;24.50;99.90;;;;;;5011688;28;20454;-66
2021/07/17 10:31:52;;;;;;;25.73;23.30;;;24.60;99.90;;;;;;5009389;28;20982;-65
2021/07/17 10:34:20;;;;;;;22.50;21.10;;;24.60;99.90;;;;;;5011489;28;20454;-66
2021/07/17 10:36:53;;;;;;;23.33;21.50;;;24.50;99.90;;;;;;5011842;28;20453;-66
2021/07/17 10:39:25;;;;;;;22.87;21.13;;;24.60;99.90;;;;;;5011744;28;20480;-66
2021/07/17 10:41:53;;;;;;;23.77;21.90;;;24.50;99.90;;;;;;5011330;28;20516;-65
2021/07/17 10:44:40;;;;;;;25.70;23.93;;;24.40;99.90;;;;;;5011463;28;20446;-66
2021/07/17 10:47:08;;;;;;;23.93;22.50;;;24.60;99.90;;;;;;5011545;28;20449;-65
2021/07/17 10:49:37;;;;;;;23.43;21.87;;;24.70;99.90;;;;;;5011521;28;20465;-65
2021/07/17 10:52:05;;;;;;;25.07;23.07;;;24.70;99.90;;;;;;5011210;28;20462;-66
2021/07/17 10:54:31;;;;;;;24.03;22.43;;;24.90;99.90;;;;;;5004185;28;20453;-65
2021/07/17 10:56:59;;;;;;;23.23;21.90;;;25.30;99.90;;;;;;5011523;28;20516;-66
2021/07/17 10:59:45;;;;;;;24.80;23.40;;;25.60;99.90;;;;;;5011054;28;21039;-67
2021/07/17 11:02:15;;;;;;;25.00;22.97;;;25.50;99.90;;;;;;5011040;28;20565;-66
2021/07/17 11:04:51;;;;;;;24.83;23.10;;;25.40;99.90;;;;;;5015057;28;20561;-65
2021/07/17 11:07:40;;;;;;;25.90;24.03;;;25.60;99.90;;;;;;5015131;28;20445;-65
2021/07/17 11:10:18;;;;;;;26.13;24.20;;;25.30;99.90;;;;;;5015244;28;20445;-65
2021/07/17 11:12:48;;;;;;;24.40;23.00;;;25.50;99.90;;;;;;5015223;28;20541;-66
2021/07/17 11:15:49;;;;;;;24.60;22.63;;;25.30;99.90;;;;;;5015060;28;20441;-66
2021/07/17 11:18:34;;;;;;;24.83;22.73;;;25.60;99.90;;;;;;4954270;29;20544;-66
2021/07/17 11:21:04;;;;;;;23.10;21.70;;;25.90;99.90;;;;;;5009113;28;20527;-66
2021/07/17 11:23:45;;;;;;;22.80;21.37;;;26.00;99.90;;;;;;5014949;28;20559;-66
2021/07/17 11:26:20;;;;;;;23.13;21.93;;;26.50;99.90;;;;;;5015061;28;20450;-66
2021/07/17 11:29:11;;;;;;;24.60;23.00;;;27.10;99.90;;;;;;5014745;28;20453;-67
2021/07/17 11:31:53;;;;;;;25.17;23.47;;;27.30;97.50;;;;;;5008083;28;20474;-67
2021/07/17 11:34:45;;;;;;;23.43;21.93;;;27.50;96.00;;;;;;5015064;28;20525;-66
2021/07/17 11:37:26;;;;;;;25.03;23.53;;;28.00;95.20;;;;;;5014822;28;20441;-67
2021/07/17 11:39:57;;;;;;;25.57;23.97;;;28.60;92.80;;;;;;5014537;28;20452;-67
2021/07/17 11:42:25;;;;;;;24.17;22.90;;;28.80;90.80;;;;;;5014361;28;20485;-67
2021/07/17 11:44:54;;;;;;;22.50;21.50;;;29.80;86.40;;;;;;5014579;28;20533;-67
2021/07/17 11:47:24;;;;;;;22.80;21.47;;;30.30;81.60;;;;;;5014293;28;20953;-67
2021/07/17 11:49:53;;;;;;;25.80;24.20;;;32.00;74.00;;;;;;5014413;28;20457;-67
2021/07/17 11:52:22;;;;;;;23.50;22.30;;;33.30;61.10;;;;;;5014078;28;20211;-67
2021/07/17 11:54:54;;;;;;;23.60;22.30;;;33.70;59.80;;;;;;5013478;28;20195;-68
2021/07/17 11:57:22;;;;;;;24.35;22.92;;;35.70;55.40;;;;;;5014301;28;20238;-72
2021/07/17 11:59:58;;;;;;;24.95;23.67;;;36.40;51.10;;;;;;5014193;28;20194;-68
2021/07/17 12:02:27;;;;;;;25.88;23.88;;;37.70;48.40;;;;;;5013893;28;20222;-67
2021/07/17 12:04:56;;;;;;;24.45;23.08;;;38.10;45.80;;;;;;5013989;28;20206;-67
2021/07/17 12:07:23;;;;;;;25.17;23.75;;;38.20;44.70;;;;;;5014436;28;20203;-67
2021/07/17 12:09:52;;;;;;;23.52;22.48;;;39.40;42.70;;;;;;5013897;28;20208;-67
2021/07/17 12:12:29;;;;;;;24.13;22.90;;;39.00;41.20;;;;;;5013755;28;20731;-67
2021/07/17 12:15:14;;;;;;;24.20;23.00;;;41.10;40.40;;;;;;5013168;28;20274;-66
2021/07/17 12:17:52;;;;;;;24.70;23.33;;;42.00;36.80;;;;;;5008167;28;20199;-67
2021/07/17 12:20:21;;;;;;;23.98;22.63;;;40.70;36.20;;;;;;5014161;28;20230;-67
2021/07/17 12:22:57;;;;;;;23.45;22.45;;;40.70;36.00;;;;;;5014033;28;20280;-67
2021/07/17 12:25:28;;;;;;;24.40;23.17;;;41.70;35.70;;;;;;5014041;28;20552;-67
2021/07/17 12:28:01;;;;;;;24.88;23.77;;;42.40;34.70;;;;;;5013936;28;20191;-67
2021/07/17 12:30:30;;;;;;;24.40;23.23;;;43.60;33.40;;;;;;5014398;28;20296;-67
2021/07/17 12:33:23;;;;;;;23.95;22.65;;;42.80;31.90;;;;;;5013925;28;20199;-65
2021/07/17 12:35:52;;;;;;;24.20;23.00;;;42.20;33.10;;;;;;5008825;28;20214;-65